Time;durP1;ratioP1;P1;durP2;ratioP2;P2;SDS_P1;SDS_P2;PMS_P1;PMS_P2;Temp;Humidity;BMP_temperature;BMP_pressure;BME280_temperature;BME280_humidity;BME280_pressure;Samples;Min_cycle;Max_cycle;Signal;HPM_P1;HPM_P2
2022/09/25 00:01:38;;;;;;;0.00;0.00;;;16.60;88.30;;;;;;4158827;28;20098;-59
2022/09/25 00:04:20;;;;;;;0.75;0.75;;;16.60;88.30;;;;;;4159307;28;20508;-59
2022/09/25 00:07:01;;;;;;;0.00;0.00;;;16.60;88.30;;;;;;4158978;28;20118;-60
2022/09/25 00:09:44;;;;;;;0.00;0.00;;;16.60;88.30;;;;;;4142961;28;20390;-59
2022/09/25 00:12:25;;;;;;;0.17;0.17;;;16.60;88.20;;;;;;4143347;28;20065;-59
2022/09/25 00:15:06;;;;;;;0.00;0.00;;;16.60;88.30;;;;;;4142997;28;20067;-59
2022/09/25 00:17:47;;;;;;;0.00;0.00;;;16.60;88.30;;;;;;4141598;28;20535;-59
2022/09/25 00:20:27;;;;;;;0.10;0.10;;;16.60;88.40;;;;;;4142853;28;20062;-59
2022/09/25 00:23:08;;;;;;;0.00;0.00;;;16.60;88.30;;;;;;4142742;28;20123;-59
2022/09/25 00:25:55;;;;;;;0.70;0.70;;;16.60;88.20;;;;;;4146096;28;20180;-59
2022/09/25 00:28:36;;;;;;;0.00;0.00;;;16.60;88.30;;;;;;4159175;28;20511;-59
2022/09/25 00:31:23;;;;;;;0.00;0.00;;;16.50;88.20;;;;;;4158483;28;20405;-59
2022/09/25 00:34:05;;;;;;;0.00;0.00;;;16.50;88.10;;;;;;4158481;28;20068;-59
2022/09/25 00:36:46;;;;;;;0.10;0.10;;;16.50;88.20;;;;;;4158907;28;20053;-58
2022/09/25 00:39:27;;;;;;;0.00;0.00;;;16.50;88.20;;;;;;4157239;28;20060;-59
2022/09/25 00:42:13;;;;;;;0.00;0.00;;;16.50;88.10;;;;;;4158612;28;20088;-59
2022/09/25 00:44:57;;;;;;;0.00;0.00;;;16.50;88.20;;;;;;4158027;28;20727;-59
2022/09/25 00:47:48;;;;;;;0.00;0.00;;;16.50;88.20;;;;;;4159058;28;20122;-59
2022/09/25 00:50:33;;;;;;;0.00;0.00;;;16.50;88.20;;;;;;4157856;28;20060;-59
2022/09/25 00:53:20;;;;;;;0.00;0.00;;;16.50;88.20;;;;;;4157983;28;20055;-59
2022/09/25 00:56:03;;;;;;;0.00;0.00;;;16.50;88.20;;;;;;4156984;28;20409;-59
2022/09/25 00:58:46;;;;;;;0.00;0.00;;;16.50;88.20;;;;;;4158736;28;20071;-59
2022/09/25 01:01:27;;;;;;;0.00;0.00;;;16.50;89.10;;;;;;4141913;28;20073;-59
2022/09/25 01:04:12;;;;;;;0.00;0.00;;;16.40;88.20;;;;;;4144592;28;20056;-59
2022/09/25 01:06:53;;;;;;;0.00;0.00;;;16.40;88.10;;;;;;4158893;28;20414;-59
2022/09/25 01:09:34;;;;;;;3.53;1.13;;;16.40;88.10;;;;;;4157727;28;20135;-59
2022/09/25 01:12:15;;;;;;;0.00;0.00;;;16.40;88.10;;;;;;4158649;28;20500;-59
2022/09/25 01:14:57;;;;;;;0.00;0.00;;;16.40;88.10;;;;;;4157863;28;20075;-59
2022/09/25 01:17:44;;;;;;;0.00;0.00;;;16.40;88.20;;;;;;4158603;28;20146;-60
2022/09/25 01:20:49;;;;;;;0.00;0.00;;;16.40;88.20;;;;;;4158301;28;20064;-59
2022/09/25 01:23:51;;;;;;;0.00;0.00;;;16.40;88.20;;;;;;4157805;28;20060;-60
2022/09/25 01:27:05;;;;;;;0.00;0.00;;;16.40;88.20;;;;;;4158304;28;20180;-60
2022/09/25 01:29:53;;;;;;;0.00;0.00;;;16.40;88.20;;;;;;4147986;28;20052;-59
2022/09/25 01:32:41;;;;;;;0.00;0.00;;;16.40;88.10;;;;;;4142076;28;20053;-59
2022/09/25 01:35:32;;;;;;;0.00;0.00;;;16.40;88.20;;;;;;4142056;28;20053;-61
2022/09/25 01:38:21;;;;;;;0.00;0.00;;;16.40;88.20;;;;;;4142078;28;20052;-60
2022/09/25 01:41:08;;;;;;;0.00;0.00;;;16.30;88.20;;;;;;4148775;28;20452;-60
2022/09/25 01:43:56;;;;;;;0.00;0.00;;;16.40;88.20;;;;;;4142448;28;20569;-60
2022/09/25 01:46:43;;;;;;;0.10;0.10;;;16.30;88.20;;;;;;4142086;28;20497;-60
2022/09/25 01:49:29;;;;;;;0.00;0.00;;;16.30;88.20;;;;;;4142381;28;20096;-60
2022/09/25 01:52:14;;;;;;;0.00;0.00;;;16.30;89.00;;;;;;4149427;28;20445;-60
2022/09/25 01:55:02;;;;;;;0.00;0.00;;;16.30;88.20;;;;;;4158189;28;20191;-60
2022/09/25 01:57:48;;;;;;;0.00;0.00;;;16.30;88.20;;;;;;4160626;28;20138;-60
2022/09/25 02:00:29;;;;;;;0.00;0.00;;;16.30;88.20;;;;;;4160188;28;20053;-60
2022/09/25 02:03:17;;;;;;;0.05;0.05;;;16.30;88.20;;;;;;4161427;28;20199;-60
2022/09/25 02:06:02;;;;;;;0.00;0.00;;;16.30;88.20;;;;;;4161547;28;20473;-60
2022/09/25 02:08:49;;;;;;;0.00;0.00;;;16.30;88.20;;;;;;4160876;28;20111;-60
2022/09/25 02:11:35;;;;;;;0.00;0.00;;;16.30;88.20;;;;;;4160906;28;20060;-60
2022/09/25 02:14:20;;;;;;;0.00;0.00;;;16.30;88.20;;;;;;4145029;28;20188;-60
2022/09/25 02:17:07;;;;;;;0.00;0.00;;;16.30;88.20;;;;;;4144882;28;20053;-60
2022/09/25 02:22:51;;;;;;;0.00;0.00;;;16.30;88.20;;;;;;4157071;28;20048;-60
2022/09/25 02:25:37;;;;;;;0.00;0.00;;;16.30;88.20;;;;;;4161228;28;20060;-60
2022/09/25 02:28:18;;;;;;;0.00;0.00;;;16.30;88.20;;;;;;4161262;28;20053;-60
2022/09/25 02:31:02;;;;;;;0.00;0.00;;;16.20;88.10;;;;;;4160993;28;20131;-59
2022/09/25 02:33:43;;;;;;;0.00;0.00;;;16.30;88.20;;;;;;4144799;28;20792;-60
2022/09/25 02:36:25;;;;;;;0.00;0.00;;;16.20;88.10;;;;;;4149579;28;20218;-60
2022/09/25 02:39:09;;;;;;;0.10;0.10;;;16.20;88.10;;;;;;4160864;28;20060;-60
2022/09/25 02:42:06;;;;;;;0.00;0.00;;;16.20;88.10;;;;;;4159890;28;20072;-60
2022/09/25 02:45:02;;;;;;;0.00;0.00;;;16.20;88.10;;;;;;4160594;28;20056;-60
2022/09/25 02:47:53;;;;;;;0.00;0.00;;;16.20;88.10;;;;;;4160340;28;20044;-61
2022/09/25 02:50:40;;;;;;;0.00;0.00;;;16.20;88.10;;;;;;4160359;28;20060;-60
2022/09/25 02:53:30;;;;;;;0.00;0.00;;;16.20;88.10;;;;;;4160367;28;20068;-60
2022/09/25 02:56:19;;;;;;;0.00;0.00;;;16.20;88.10;;;;;;4158976;28;20060;-60
2022/09/25 02:59:05;;;;;;;0.00;0.00;;;16.20;88.10;;;;;;4158819;28;20872;-60
2022/09/25 03:01:47;;;;;;;0.00;0.00;;;16.20;88.10;;;;;;4144184;28;20508;-60
2022/09/25 03:04:29;;;;;;;0.00;0.00;;;16.20;88.10;;;;;;4143265;28;20162;-60
2022/09/25 03:07:11;;;;;;;0.00;0.00;;;16.20;88.10;;;;;;4144448;28;20049;-60
2022/09/25 03:09:56;;;;;;;0.00;0.00;;;16.20;88.10;;;;;;4144119;28;20104;-61
2022/09/25 03:12:37;;;;;;;0.00;0.00;;;16.20;88.10;;;;;;4148245;28;20053;-60
2022/09/25 03:15:18;;;;;;;0.00;0.00;;;16.10;88.10;;;;;;4160374;28;20056;-61
2022/09/25 03:17:59;;;;;;;;;;;16.20;88.10;;;;;;4160077;28;20114;-60
2022/09/25 03:20:40;;;;;;;0.00;0.00;;;16.10;88.00;;;;;;4159388;28;19995;-61
2022/09/25 03:23:21;;;;;;;0.00;0.00;;;16.10;88.00;;;;;;4159999;28;20099;-61
2022/09/25 03:26:04;;;;;;;0.00;0.00;;;16.10;88.10;;;;;;4158692;28;20195;-60
2022/09/25 03:28:47;;;;;;;0.00;0.00;;;16.10;88.00;;;;;;4159838;28;20044;-60
2022/09/25 03:31:29;;;;;;;0.00;0.00;;;16.10;88.10;;;;;;4159926;28;20060;-62
2022/09/25 03:34:11;;;;;;;;;;;16.10;88.10;;;;;;4158328;28;20099;-61
2022/09/25 03:36:52;;;;;;;0.00;0.00;;;16.10;88.00;;;;;;4158341;28;19928;-60
2022/09/25 03:39:33;;;;;;;0.00;0.00;;;16.10;88.00;;;;;;4159989;28;20064;-61
2022/09/25 03:42:15;;;;;;;0.00;0.00;;;16.10;88.00;;;;;;4159939;28;20064;-60
2022/09/25 03:44:56;;;;;;;0.00;0.00;;;16.10;88.10;;;;;;4159521;28;20466;-60
2022/09/25 03:47:37;;;;;;;0.00;0.00;;;16.10;88.10;;;;;;4154882;28;20597;-60
2022/09/25 03:50:18;;;;;;;0.00;0.00;;;16.10;88.10;;;;;;4159709;28;20060;-60
2022/09/25 03:52:58;;;;;;;0.00;0.00;;;16.10;88.10;;;;;;4159551;28;20402;-60
2022/09/25 03:55:39;;;;;;;0.00;0.00;;;16.00;88.00;;;;;;4159710;28;20465;-60
2022/09/25 03:58:22;;;;;;;0.00;0.00;;;16.00;88.00;;;;;;4142991;28;20184;-60
2022/09/25 04:01:03;;;;;;;0.00;0.00;;;16.00;88.00;;;;;;4143185;28;20057;-60
2022/09/25 04:03:45;;;;;;;0.00;0.00;;;16.00;88.00;;;;;;4153541;28;20056;-60
2022/09/25 04:06:26;;;;;;;0.05;0.05;;;16.00;88.00;;;;;;4159138;28;20052;-60
2022/09/25 04:09:07;;;;;;;0.00;0.00;;;16.00;88.10;;;;;;4159016;28;20513;-60
2022/09/25 04:11:48;;;;;;;0.10;0.10;;;16.00;88.00;;;;;;4159500;28;20327;-61
2022/09/25 04:14:30;;;;;;;0.00;0.00;;;16.00;88.00;;;;;;4159750;28;20060;-60
2022/09/25 04:17:11;;;;;;;0.00;0.00;;;16.00;88.00;;;;;;4159129;28;20056;-61
2022/09/25 04:19:52;;;;;;;0.00;0.00;;;16.00;88.00;;;;;;4158083;28;20076;-60
2022/09/25 04:22:33;;;;;;;0.00;0.00;;;16.00;88.00;;;;;;4158602;28;20056;-60
2022/09/25 04:25:14;;;;;;;0.00;0.00;;;16.00;88.00;;;;;;4159388;28;20528;-60
2022/09/25 04:27:58;;;;;;;0.00;0.00;;;16.00;87.50;;;;;;4158841;28;20067;-61
2022/09/25 04:30:40;;;;;;;0.00;0.00;;;16.00;88.00;;;;;;4158930;28;20469;-61
2022/09/25 04:36:19;;;;;;;0.00;0.00;;;16.00;88.00;;;;;;4158174;28;20184;-60
2022/09/25 04:39:00;;;;;;;0.00;0.00;;;16.00;87.90;;;;;;4158806;28;20064;-60
2022/09/25 04:41:42;;;;;;;0.00;0.00;;;15.90;87.90;;;;;;4158872;28;20489;-60
2022/09/25 04:44:23;;;;;;;0.00;0.00;;;16.00;87.90;;;;;;4159131;28;20048;-60
2022/09/25 04:47:05;;;;;;;0.00;0.00;;;15.90;88.70;;;;;;4158599;28;20060;-60
2022/09/25 04:49:46;;;;;;;0.00;0.00;;;15.90;87.90;;;;;;4158438;28;20733;-60
2022/09/25 04:52:27;;;;;;;0.00;0.00;;;15.90;87.90;;;;;;4157705;28;20390;-60
2022/09/25 04:55:08;;;;;;;0.00;0.00;;;15.90;87.90;;;;;;4158031;28;20052;-60
2022/09/25 04:57:51;;;;;;;0.00;0.00;;;15.90;87.90;;;;;;4158500;28;20496;-60
2022/09/25 05:00:39;;;;;;;0.00;0.00;;;15.90;87.90;;;;;;4142556;28;20052;-60
2022/09/25 05:03:21;;;;;;;0.00;0.00;;;15.90;88.80;;;;;;4155439;28;20051;-60
2022/09/25 05:06:04;;;;;;;0.00;0.00;;;15.90;87.90;;;;;;4157494;28;20126;-59
2022/09/25 05:08:48;;;;;;;0.00;0.00;;;15.90;88.10;;;;;;4157309;28;20052;-59
2022/09/25 05:11:29;;;;;;;0.00;0.00;;;15.90;87.90;;;;;;4157961;28;20390;-59
2022/09/25 05:14:10;;;;;;;0.00;0.00;;;15.90;88.00;;;;;;4158184;28;20914;-60
2022/09/25 05:16:50;;;;;;;0.00;0.00;;;15.90;88.00;;;;;;4156504;28;20064;-59
2022/09/25 05:19:33;;;;;;;0.00;0.00;;;15.90;87.90;;;;;;4158448;28;20056;-59
2022/09/25 05:22:15;;;;;;;0.00;0.00;;;15.90;87.90;;;;;;4158754;28;20218;-59
2022/09/25 05:24:55;;;;;;;0.00;0.00;;;15.90;88.00;;;;;;4142388;28;20076;-59
2022/09/25 05:27:38;;;;;;;0.00;0.00;;;15.90;88.00;;;;;;4153419;28;20053;-59
2022/09/25 05:30:19;;;;;;;0.17;0.17;;;15.90;87.90;;;;;;4158808;28;20056;-59
2022/09/25 05:33:00;;;;;;;0.00;0.00;;;15.90;87.90;;;;;;4162006;28;20056;-59
2022/09/25 05:35:42;;;;;;;0.00;0.00;;;15.90;88.00;;;;;;4161610;28;20056;-59
2022/09/25 05:38:23;;;;;;;0.10;0.10;;;15.90;88.00;;;;;;4161626;28;20088;-59
2022/09/25 05:41:06;;;;;;;0.00;0.00;;;15.90;87.90;;;;;;4161434;28;20047;-58
2022/09/25 05:43:47;;;;;;;0.00;0.00;;;15.90;87.90;;;;;;4160108;28;20180;-59
2022/09/25 05:46:28;;;;;;;;;;;15.80;88.00;;;;;;4161600;28;20047;-59
2022/09/25 05:49:09;;;;;;;0.00;0.00;;;15.80;88.00;;;;;;4159170;28;20006;-60
2022/09/25 05:51:51;;;;;;;0.00;0.00;;;15.90;88.30;;;;;;4161806;28;20095;-60
2022/09/25 05:54:32;;;;;;;0.00;0.00;;;15.90;88.20;;;;;;4161506;28;20063;-60
2022/09/25 05:57:13;;;;;;;0.00;0.00;;;15.80;88.00;;;;;;4161067;28;20052;-59
2022/09/25 05:59:54;;;;;;;0.00;0.00;;;15.90;88.00;;;;;;4161177;28;20517;-60
2022/09/25 06:02:35;;;;;;;0.00;0.00;;;15.90;88.00;;;;;;4148171;28;20068;-60
2022/09/25 06:05:17;;;;;;;0.00;0.00;;;15.80;87.80;;;;;;4161143;28;20045;-59
2022/09/25 06:07:59;;;;;;;0.00;0.00;;;15.80;87.90;;;;;;4160290;28;20052;-60
2022/09/25 06:10:40;;;;;;;0.00;0.00;;;15.80;87.80;;;;;;4160279;28;20087;-61
2022/09/25 06:13:22;;;;;;;0.00;0.00;;;15.80;87.80;;;;;;4144725;28;20056;-60
2022/09/25 06:16:04;;;;;;;0.35;0.35;;;15.80;87.80;;;;;;4144729;28;20064;-60
2022/09/25 06:18:46;;;;;;;0.00;0.00;;;15.80;87.70;;;;;;4157632;28;20061;-60
2022/09/25 06:21:27;;;;;;;0.00;0.00;;;15.80;87.80;;;;;;4146875;28;20131;-61
2022/09/25 06:24:10;;;;;;;0.00;0.00;;;15.80;87.80;;;;;;4160780;28;20052;-60
2022/09/25 06:26:51;;;;;;;0.00;0.00;;;15.80;87.80;;;;;;4160679;28;20052;-60
2022/09/25 06:29:32;;;;;;;0.00;0.00;;;15.80;87.80;;;;;;4161055;28;20064;-59
2022/09/25 06:32:15;;;;;;;0.00;0.00;;;15.80;87.90;;;;;;4160226;28;20183;-59
2022/09/25 06:34:56;;;;;;;0.00;0.00;;;15.80;87.90;;;;;;4159829;28;20275;-60
2022/09/25 06:37:37;;;;;;;0.00;0.00;;;15.80;88.00;;;;;;4160619;28;20122;-60
2022/09/25 06:40:19;;;;;;;0.00;0.00;;;15.80;87.80;;;;;;4160372;28;20079;-59
2022/09/25 06:43:02;;;;;;;0.00;0.00;;;15.80;87.80;;;;;;4158013;28;20526;-60
2022/09/25 06:45:43;;;;;;;0.00;0.00;;;15.80;87.80;;;;;;4160751;28;20056;-59
2022/09/25 06:48:24;;;;;;;0.00;0.00;;;15.70;87.60;;;;;;4159073;28;20414;-59
2022/09/25 06:51:07;;;;;;;0.22;0.22;;;15.70;87.60;;;;;;4159170;28;20259;-60
2022/09/25 06:53:51;;;;;;;0.00;0.00;;;15.80;87.70;;;;;;4152473;28;20068;-60
2022/09/25 06:56:34;;;;;;;0.05;0.05;;;15.80;87.70;;;;;;4159953;28;20061;-60
2022/09/25 06:59:15;;;;;;;0.00;0.00;;;15.80;87.60;;;;;;4151483;28;20099;-59
2022/09/25 07:03:43;;;;;;;0.00;0.00;;;15.70;87.50;;;;;;4160597;28;20057;-60
2022/09/25 07:04:59;;;;;;;1.88;1.67;;;15.80;87.50;;;;;;4160114;28;20613;-59
2022/09/25 07:07:40;;;;;;;0.10;0.10;;;15.80;87.40;;;;;;4143609;28;20127;-59
2022/09/25 07:10:21;;;;;;;0.00;0.00;;;15.90;87.50;;;;;;4153828;28;20096;-60
2022/09/25 07:13:03;;;;;;;0.00;0.00;;;15.90;87.40;;;;;;4143748;28;20067;-60
2022/09/25 07:15:50;;;;;;;0.00;0.00;;;16.00;87.40;;;;;;4145260;28;20057;-59
2022/09/25 07:18:30;;;;;;;0.90;0.90;;;16.00;87.30;;;;;;4152612;28;20418;-60
2022/09/25 07:21:13;;;;;;;0.22;0.22;;;16.00;87.20;;;;;;4159275;28;20064;-60
2022/09/25 07:23:56;;;;;;;0.00;0.00;;;16.10;87.10;;;;;;4159482;28;20052;-60
2022/09/25 07:26:37;;;;;;;0.08;0.08;;;16.10;87.00;;;;;;4159888;28;20056;-60
2022/09/25 07:29:23;;;;;;;0.00;0.00;;;16.20;87.00;;;;;;4159441;28;20056;-60
2022/09/25 07:32:04;;;;;;;0.00;0.00;;;16.20;86.90;;;;;;4159210;28;20065;-58
2022/09/25 07:34:48;;;;;;;0.00;0.00;;;16.20;86.70;;;;;;4157029;28;20211;-60
2022/09/25 07:37:30;;;;;;;0.00;0.00;;;16.20;86.60;;;;;;4157243;28;20056;-59
2022/09/25 07:40:12;;;;;;;;;;;16.30;86.60;;;;;;4155210;28;20091;-59
2022/09/25 07:42:52;;;;;;;0.00;0.00;;;16.30;86.50;;;;;;4159491;28;19928;-60
2022/09/25 07:45:35;;;;;;;0.00;0.00;;;16.30;86.50;;;;;;4159459;28;20055;-60
2022/09/25 07:48:16;;;;;;;0.30;0.30;;;16.30;86.30;;;;;;4158949;28;20176;-59
2022/09/25 07:51:00;;;;;;;0.00;0.00;;;16.40;86.40;;;;;;4153863;28;20049;-60
2022/09/25 07:53:42;;;;;;;0.10;0.10;;;16.40;86.20;;;;;;4152821;28;20123;-60
2022/09/25 07:56:22;;;;;;;;;;;16.50;86.20;;;;;;4143578;28;20618;-59
2022/09/25 07:59:03;;;;;;;0.00;0.00;;;16.50;86.20;;;;;;4148967;28;19932;-59
2022/09/25 08:01:45;;;;;;;0.00;0.00;;;16.50;85.90;;;;;;4143186;28;20057;-60
2022/09/25 08:04:32;;;;;;;0.00;0.00;;;16.50;85.90;;;;;;4143198;28;20605;-60
2022/09/25 08:07:13;;;;;;;0.10;0.10;;;16.60;85.90;;;;;;4145631;28;20298;-59
2022/09/25 08:09:54;;;;;;;0.00;0.00;;;16.60;85.80;;;;;;4158534;28;20224;-59
2022/09/25 08:12:35;;;;;;;0.00;0.00;;;16.60;85.70;;;;;;4159185;28;20083;-59
2022/09/25 08:15:16;;;;;;;0.00;0.00;;;16.60;85.40;;;;;;4159098;28;20187;-59
2022/09/25 08:17:59;;;;;;;0.28;0.28;;;16.70;85.40;;;;;;4158013;28;20095;-59
2022/09/25 08:20:40;;;;;;;0.40;0.40;;;16.70;85.70;;;;;;4159016;28;20418;-59
2022/09/25 08:23:21;;;;;;;0.00;0.00;;;16.70;85.30;;;;;;4159441;28;20187;-59
2022/09/25 08:26:02;;;;;;;2.25;1.30;;;16.70;85.40;;;;;;4142701;28;20181;-60
2022/09/25 08:28:43;;;;;;;0.10;0.10;;;16.80;85.50;;;;;;4154768;28;20052;-60
2022/09/25 08:31:24;;;;;;;0.00;0.00;;;16.80;85.30;;;;;;4148166;28;20075;-60
2022/09/25 08:34:09;;;;;;;0.00;0.00;;;16.80;85.30;;;;;;4158901;28;20080;-60
2022/09/25 08:37:10;;;;;;;0.00;0.00;;;16.80;85.30;;;;;;4158686;28;20056;-59
2022/09/25 08:39:51;;;;;;;0.00;0.00;;;16.80;84.90;;;;;;4158422;28;20519;-59
2022/09/25 08:42:35;;;;;;;0.00;0.00;;;16.80;84.70;;;;;;4147377;28;20131;-59
2022/09/25 08:51:33;;;;;;;0.00;0.00;;;16.80;84.50;;;;;;4158766;28;20183;-60
2022/09/25 08:54:19;;;;;;;0.15;0.15;;;16.80;84.70;;;;;;4157621;28;20060;-60
2022/09/25 08:57:04;;;;;;;0.00;0.00;;;16.80;84.60;;;;;;4158766;28;20107;-60
2022/09/25 08:59:49;;;;;;;0.00;0.00;;;16.80;84.10;;;;;;4158370;28;20106;-59
2022/09/25 09:02:38;;;;;;;0.00;0.00;;;16.80;83.50;;;;;;4158646;28;20059;-60
2022/09/25 09:05:25;;;;;;;0.00;0.00;;;16.90;83.90;;;;;;4157399;28;20056;-60
2022/09/25 09:08:11;;;;;;;0.10;0.10;;;16.90;81.70;;;;;;4142350;28;20053;-59
2022/09/25 09:10:56;;;;;;;0.00;0.00;;;16.90;81.20;;;;;;4153327;28;20056;-60
2022/09/25 09:13:43;;;;;;;5.00;1.35;;;16.90;81.20;;;;;;4157345;28;20052;-59
2022/09/25 09:16:30;;;;;;;0.00;0.00;;;16.90;81.50;;;;;;4158245;28;20045;-60
2022/09/25 09:19:12;;;;;;;0.00;0.00;;;16.90;81.80;;;;;;4157891;28;20107;-60
2022/09/25 09:22:01;;;;;;;0.00;0.00;;;16.90;81.50;;;;;;4158380;28;20048;-60
2022/09/25 09:24:54;;;;;;;0.00;0.00;;;16.90;81.40;;;;;;4158224;28;20060;-59
2022/09/25 09:28:00;;;;;;;0.43;0.43;;;16.90;81.40;;;;;;4141664;28;20057;-59
2022/09/25 09:30:48;;;;;;;0.00;0.00;;;17.00;81.50;;;;;;4152518;28;20073;-59
2022/09/25 09:33:41;;;;;;;0.03;0.03;;;17.00;81.70;;;;;;4157197;28;20409;-58
2022/09/25 09:36:29;;;;;;;0.00;0.00;;;17.00;81.70;;;;;;4158031;28;20052;-59
2022/09/25 09:39:17;;;;;;;0.00;0.00;;;17.00;81.80;;;;;;4157247;28;20057;-59
2022/09/25 09:42:14;;;;;;;0.90;0.65;;;17.00;81.90;;;;;;4157950;28;20095;-59
2022/09/25 09:45:08;;;;;;;0.10;0.10;;;17.00;82.80;;;;;;4149201;28;20052;-59
2022/09/25 09:47:59;;;;;;;0.00;0.00;;;17.00;81.90;;;;;;4156259;28;20131;-59
2022/09/25 09:50:44;;;;;;;0.17;0.17;;;16.90;81.80;;;;;;4158616;28;21044;-59
2022/09/25 09:53:38;;;;;;;0.00;0.00;;;16.90;81.70;;;;;;4158596;28;20057;-60
2022/09/25 09:56:25;;;;;;;0.00;0.00;;;16.90;81.80;;;;;;4157432;28;20099;-59
2022/09/25 09:59:16;;;;;;;0.00;0.00;;;16.90;81.90;;;;;;4158328;28;20195;-59
2022/09/25 10:02:00;;;;;;;;;;;16.90;81.80;;;;;;4142658;28;20139;-59
2022/09/25 10:04:42;;;;;;;0.00;0.00;;;16.90;81.90;;;;;;4141476;28;20048;-59
2022/09/25 10:07:26;;;;;;;0.00;0.00;;;16.80;81.80;;;;;;4141403;28;20060;-59
2022/09/25 10:10:13;;;;;;;0.00;0.00;;;16.80;82.00;;;;;;4154129;28;20095;-59
2022/09/25 10:12:54;;;;;;;0.10;0.10;;;16.80;82.00;;;;;;4157881;28;20060;-59
2022/09/25 10:15:42;;;;;;;0.00;0.00;;;16.80;82.10;;;;;;4157876;28;20076;-59
2022/09/25 10:18:26;;;;;;;0.00;0.00;;;16.80;82.20;;;;;;4160387;28;20050;-59
2022/09/25 10:21:13;;;;;;;0.00;0.00;;;16.80;82.30;;;;;;4160999;28;20061;-59
2022/09/25 10:23:57;;;;;;;0.00;0.00;;;16.80;82.40;;;;;;4159645;28;20072;-58
2022/09/25 10:26:39;;;;;;;0.00;0.00;;;16.80;83.40;;;;;;4156849;28;20115;-59
2022/09/25 10:29:26;;;;;;;0.00;0.00;;;16.80;82.60;;;;;;4144517;28;20399;-59
2022/09/25 10:32:11;;;;;;;0.00;0.00;;;16.80;82.90;;;;;;4144681;28;20049;-59
2022/09/25 10:34:53;;;;;;;0.15;0.15;;;16.80;83.10;;;;;;4143105;28;20473;-58
2022/09/25 10:37:34;;;;;;;0.80;0.80;;;16.80;83.20;;;;;;4143820;28;20045;-59
2022/09/25 10:40:31;;;;;;;0.55;0.55;;;16.90;83.30;;;;;;4147135;28;20174;-58
2022/09/25 10:43:19;;;;;;;2.50;0.57;;;16.90;83.20;;;;;;4159956;28;20056;-59
2022/09/25 10:46:13;;;;;;;0.10;0.10;;;16.90;83.00;;;;;;4160348;28;20176;-59
2022/09/25 10:52:13;;;;;;;0.10;0.10;;;16.90;83.10;;;;;;4159948;28;20056;-59
2022/09/25 10:55:15;;;;;;;1.35;0.75;;;16.90;82.80;;;;;;4160639;28;20484;-59
2022/09/25 10:58:09;;;;;;;0.10;0.10;;;16.90;82.20;;;;;;4159357;28;20127;-59
2022/09/25 11:00:55;;;;;;;0.35;0.35;;;16.90;82.40;;;;;;4159418;28;20187;-59
2022/09/25 11:03:44;;;;;;;0.25;0.25;;;16.90;82.50;;;;;;4160346;28;20441;-59
2022/09/25 11:06:29;;;;;;;0.00;0.00;;;16.80;82.60;;;;;;4159691;28;20142;-60
2022/09/25 11:09:14;;;;;;;0.30;0.30;;;16.80;82.70;;;;;;4160234;28;20052;-60
2022/09/25 11:12:06;;;;;;;1.52;0.40;;;16.80;83.70;;;;;;4158889;28;20119;-59
2022/09/25 11:14:56;;;;;;;0.47;0.47;;;16.80;82.80;;;;;;4153116;28;20073;-60
2022/09/25 11:17:39;;;;;;;0.00;0.00;;;16.80;82.90;;;;;;4151061;28;20053;-60
2022/09/25 11:20:28;;;;;;;6.32;2.28;;;16.80;83.00;;;;;;4150289;28;20052;-60
2022/09/25 11:23:24;;;;;;;0.30;0.30;;;16.80;83.00;;;;;;4156701;28;20068;-60
2022/09/25 11:26:09;;;;;;;0.00;0.00;;;16.80;83.20;;;;;;4151092;28;20931;-60
2022/09/25 11:28:54;;;;;;;0.00;0.00;;;16.80;83.40;;;;;;4156517;28;20092;-60
2022/09/25 11:31:39;;;;;;;0.00;0.00;;;16.90;83.40;;;;;;4141843;28;20053;-60
2022/09/25 11:34:35;;;;;;;0.85;0.85;;;16.90;83.10;;;;;;4151370;28;20063;-60
2022/09/25 11:37:20;;;;;;;0.05;0.05;;;16.90;83.80;;;;;;4150168;28;20053;-60
2022/09/25 11:43:14;;;;;;;0.35;0.35;;;17.00;82.80;;;;;;4154915;28;20607;-60
2022/09/25 11:46:01;;;;;;;0.00;0.00;;;17.00;82.70;;;;;;4157356;28;20187;-60
2022/09/25 11:48:54;;;;;;;0.00;0.00;;;17.00;81.50;;;;;;4147853;28;20057;-60
2022/09/25 11:52:06;;;;;;;14.25;0.80;;;17.10;81.50;;;;;;4149469;28;20521;-60
2022/09/25 11:55:21;;;;;;;0.00;0.00;;;17.10;81.80;;;;;;4144981;28;20085;-60
2022/09/25 11:58:33;;;;;;;0.05;0.05;;;17.20;81.60;;;;;;4142686;28;20077;-64
2022/09/25 12:01:26;;;;;;;0.00;0.00;;;17.20;81.20;;;;;;4139750;28;20052;-64
2022/09/25 12:04:33;;;;;;;0.00;0.00;;;17.20;81.30;;;;;;4155474;28;20526;-64
2022/09/25 12:07:46;;;;;;;0.22;0.22;;;17.30;80.90;;;;;;4148283;28;20056;-63
2022/09/25 12:10:38;;;;;;;0.40;0.40;;;17.30;80.90;;;;;;4151785;28;20061;-63
2022/09/25 12:13:29;;;;;;;0.00;0.00;;;17.30;80.60;;;;;;4152529;28;20052;-63
2022/09/25 12:16:19;;;;;;;0.00;0.00;;;17.20;80.70;;;;;;4155354;28;20187;-64
2022/09/25 12:19:18;;;;;;;0.00;0.00;;;17.20;80.70;;;;;;4149528;28;20523;-63
2022/09/25 12:22:07;;;;;;;0.00;0.00;;;17.20;80.20;;;;;;4145811;28;20059;-64
2022/09/25 12:25:02;;;;;;;0.00;0.00;;;17.20;80.20;;;;;;4151225;28;20076;-63
2022/09/25 12:27:53;;;;;;;0.00;0.00;;;17.20;80.30;;;;;;4149709;28;20126;-63
2022/09/25 12:30:41;;;;;;;;;;;17.20;79.80;;;;;;4148464;28;20107;-63
2022/09/25 12:33:31;;;;;;;0.08;0.08;;;17.10;79.90;;;;;;4142967;28;19928;-63
2022/09/25 12:36:17;;;;;;;0.00;0.00;;;17.10;80.70;;;;;;4147917;28;20099;-63
2022/09/25 12:39:03;;;;;;;0.30;0.30;;;17.00;80.90;;;;;;4147801;28;20057;-63
2022/09/25 12:41:50;;;;;;;0.85;0.85;;;17.00;81.20;;;;;;4151742;28;20052;-63
2022/09/25 12:44:37;;;;;;;0.00;0.00;;;17.00;81.40;;;;;;4153810;28;20521;-63
2022/09/25 12:47:32;;;;;;;0.03;0.03;;;17.00;81.60;;;;;;4155995;28;20530;-63
2022/09/25 12:50:16;;;;;;;0.00;0.00;;;17.00;81.70;;;;;;4152405;28;20136;-63
2022/09/25 12:53:01;;;;;;;14.93;1.55;;;17.00;81.70;;;;;;4139058;28;20057;-63
2022/09/25 12:55:46;;;;;;;0.00;0.00;;;17.00;81.60;;;;;;4153766;28;20176;-62
2022/09/25 12:58:46;;;;;;;0.05;0.05;;;17.00;81.90;;;;;;4139391;28;20466;-63
2022/09/25 13:01:36;;;;;;;0.10;0.10;;;17.00;81.80;;;;;;4147845;28;20211;-64
2022/09/25 13:04:39;;;;;;;0.00;0.00;;;17.10;81.80;;;;;;4142642;28;20098;-64
2022/09/25 13:07:27;;;;;;;0.00;0.00;;;17.10;82.00;;;;;;4154936;28;20522;-62
2022/09/25 13:10:21;;;;;;;0.20;0.20;;;17.10;82.10;;;;;;4155779;28;20048;-63
2022/09/25 13:13:09;;;;;;;0.88;0.88;;;17.10;82.60;;;;;;4146324;28;20469;-63
2022/09/25 13:15:56;;;;;;;0.00;0.00;;;17.10;82.80;;;;;;4154267;28;20110;-63
2022/09/25 13:18:38;;;;;;;0.00;0.00;;;17.10;82.70;;;;;;4145047;28;20056;-63
2022/09/25 13:21:26;;;;;;;0.00;0.00;;;17.20;82.70;;;;;;4150491;28;20052;-64
2022/09/25 13:24:11;;;;;;;0.05;0.05;;;17.20;83.10;;;;;;4147164;28;20056;-63
2022/09/25 13:26:55;;;;;;;0.00;0.00;;;17.20;83.30;;;;;;4147874;28;20418;-63
2022/09/25 13:29:38;;;;;;;0.00;0.00;;;17.30;84.20;;;;;;4145934;28;20529;-63
2022/09/25 13:32:23;;;;;;;0.00;0.00;;;17.30;83.60;;;;;;4146938;28;20052;-63
2022/09/25 13:35:06;;;;;;;0.00;0.00;;;17.40;83.70;;;;;;4139896;28;20060;-63
2022/09/25 13:37:51;;;;;;;0.32;0.32;;;17.40;83.50;;;;;;4139510;28;20575;-63
2022/09/25 13:40:45;;;;;;;0.00;0.00;;;17.50;83.20;;;;;;4140129;28;20814;-63
2022/09/25 13:43:28;;;;;;;0.10;0.10;;;17.50;82.90;;;;;;4139475;28;20481;-63
2022/09/25 13:46:24;;;;;;;0.00;0.00;;;17.50;82.10;;;;;;4147094;28;20517;-63
2022/09/25 13:49:34;;;;;;;0.00;0.00;;;17.60;81.80;;;;;;4141563;28;20057;-63
2022/09/25 13:52:29;;;;;;;0.00;0.00;;;17.60;80.90;;;;;;4140016;28;20970;-64
2022/09/25 13:55:18;;;;;;;0.00;0.00;;;17.60;79.50;;;;;;4148226;28;20076;-63
2022/09/25 13:58:02;;;;;;;1.00;1.00;;;17.60;80.30;;;;;;4144546;28;20044;-63
2022/09/25 14:00:56;;;;;;;0.00;0.00;;;17.60;80.20;;;;;;4147903;28;20053;-63
2022/09/25 14:03:40;;;;;;;0.77;0.68;;;17.60;80.20;;;;;;4149379;28;20497;-63
2022/09/25 14:06:24;;;;;;;0.00;0.00;;;17.70;80.20;;;;;;4147680;28;20122;-62
2022/09/25 14:09:09;;;;;;;0.10;0.10;;;17.60;79.20;;;;;;4145462;28;21171;-62
2022/09/25 14:12:06;;;;;;;0.00;0.00;;;17.60;80.10;;;;;;4157735;28;20056;-62
2022/09/25 14:14:54;;;;;;;0.00;0.00;;;17.70;80.60;;;;;;4143240;28;20199;-64
2022/09/25 14:17:36;;;;;;;0.00;0.00;;;17.70;80.60;;;;;;4142120;28;20052;-63
2022/09/25 14:20:34;;;;;;;0.00;0.00;;;17.70;81.30;;;;;;4148857;28;20052;-65
2022/09/25 14:23:22;;;;;;;0.00;0.00;;;17.80;80.00;;;;;;4141735;28;20247;-63
2022/09/25 14:26:06;;;;;;;0.00;0.00;;;17.80;79.20;;;;;;4149718;28;20183;-63
2022/09/25 14:28:50;;;;;;;0.20;0.20;;;17.80;80.00;;;;;;4155064;28;20144;-64
2022/09/25 14:31:46;;;;;;;0.40;0.40;;;17.80;80.40;;;;;;4144688;28;20348;-65
2022/09/25 14:34:41;;;;;;;0.00;0.00;;;17.90;80.80;;;;;;4142278;28;20068;-63
2022/09/25 14:37:44;;;;;;;0.00;0.00;;;17.90;80.30;;;;;;4142295;28;20061;-63
2022/09/25 14:40:32;;;;;;;0.00;0.00;;;17.90;79.80;;;;;;4156762;28;20056;-63
2022/09/25 14:43:32;;;;;;;0.00;0.00;;;18.00;80.10;;;;;;4146837;28;20186;-63